sensor_id;sensor_type;location;lat;lon;timestamp;P1;P2;P0
75946;PMS5003;64628;50.104;14.614;2024-02-28T00:00:08;54;46;
75946;PMS5003;64628;50.104;14.614;2024-02-28T00:02:33;51;46;
75946;PMS5003;64628;50.104;14.614;2024-02-28T00:04:58;45;34;
75946;PMS5003;64628;50.104;14.614;2024-02-28T00:07:24;53;50;
75946;PMS5003;64628;50.104;14.614;2024-02-28T00:09:50;50;41;
75946;PMS5003;64628;50.104;14.614;2024-02-28T00:12:15;52;37;
75946;PMS5003;64628;50.104;14.614;2024-02-28T00:14:40;51;46;
75946;PMS5003;64628;50.104;14.614;2024-02-28T00:17:06;44;32;
75946;PMS5003;64628;50.104;14.614;2024-02-28T00:19:31;42;37;
75946;PMS5003;64628;50.104;14.614;2024-02-28T00:21:56;47;42;
75946;PMS5003;64628;50.104;14.614;2024-02-28T00:24:22;40;37;
75946;PMS5003;64628;50.104;14.614;2024-02-28T00:26:47;57;48;
75946;PMS5003;64628;50.104;14.614;2024-02-28T00:29:12;57;44;
75946;PMS5003;64628;50.104;14.614;2024-02-28T00:31:38;56;41;
75946;PMS5003;64628;50.104;14.614;2024-02-28T00:34:03;57;44;
75946;PMS5003;64628;50.104;14.614;2024-02-28T00:36:28;45;36;
75946;PMS5003;64628;50.104;14.614;2024-02-28T00:38:54;49;42;
75946;PMS5003;64628;50.104;14.614;2024-02-28T00:41:20;44;39;
75946;PMS5003;64628;50.104;14.614;2024-02-28T00:43:45;45;37;
75946;PMS5003;64628;50.104;14.614;2024-02-28T00:46:11;53;44;
75946;PMS5003;64628;50.104;14.614;2024-02-28T00:48:37;48;41;
75946;PMS5003;64628;50.104;14.614;2024-02-28T00:51:02;50;43;
75946;PMS5003;64628;50.104;14.614;2024-02-28T00:53:27;46;40;
75946;PMS5003;64628;50.104;14.614;2024-02-28T00:55:52;50;40;
75946;PMS5003;64628;50.104;14.614;2024-02-28T00:58:17;53;41;
75946;PMS5003;64628;50.104;14.614;2024-02-28T01:00:43;45;38;
75946;PMS5003;64628;50.104;14.614;2024-02-28T01:03:08;45;35;
75946;PMS5003;64628;50.104;14.614;2024-02-28T01:05:33;46;40;
75946;PMS5003;64628;50.104;14.614;2024-02-28T01:07:58;62;46;
75946;PMS5003;64628;50.104;14.614;2024-02-28T01:10:23;59;47;
75946;PMS5003;64628;50.104;14.614;2024-02-28T01:12:48;56;45;
75946;PMS5003;64628;50.104;14.614;2024-02-28T01:15:14;48;37;
75946;PMS5003;64628;50.104;14.614;2024-02-28T01:17:40;49;40;
75946;PMS5003;64628;50.104;14.614;2024-02-28T01:20:06;48;36;
75946;PMS5003;64628;50.104;14.614;2024-02-28T01:22:30;39;36;
75946;PMS5003;64628;50.104;14.614;2024-02-28T01:24:56;44;39;
75946;PMS5003;64628;50.104;14.614;2024-02-28T01:27:21;48;36;
75946;PMS5003;64628;50.104;14.614;2024-02-28T01:29:46;51;41;
75946;PMS5003;64628;50.104;14.614;2024-02-28T01:32:12;55;44;
75946;PMS5003;64628;50.104;14.614;2024-02-28T01:34:37;37;36;
75946;PMS5003;64628;50.104;14.614;2024-02-28T01:37:03;45;33;
75946;PMS5003;64628;50.104;14.614;2024-02-28T01:39:28;49;41;
75946;PMS5003;64628;50.104;14.614;2024-02-28T01:41:54;49;40;
75946;PMS5003;64628;50.104;14.614;2024-02-28T01:44:20;45;41;
75946;PMS5003;64628;50.104;14.614;2024-02-28T01:46:45;45;41;
75946;PMS5003;64628;50.104;14.614;2024-02-28T01:49:10;42;35;
75946;PMS5003;64628;50.104;14.614;2024-02-28T01:51:35;44;39;
75946;PMS5003;64628;50.104;14.614;2024-02-28T01:54:01;57;44;
75946;PMS5003;64628;50.104;14.614;2024-02-28T01:56:26;48;36;
75946;PMS5003;64628;50.104;14.614;2024-02-28T01:58:52;37;35;
75946;PMS5003;64628;50.104;14.614;2024-02-28T02:01:18;46;40;
75946;PMS5003;64628;50.104;14.614;2024-02-28T02:03:43;35;31;
75946;PMS5003;64628;50.104;14.614;2024-02-28T02:06:09;33;31;
75946;PMS5003;64628;50.104;14.614;2024-02-28T02:08:34;42;36;
75946;PMS5003;64628;50.104;14.614;2024-02-28T02:11:00;53;37;
75946;PMS5003;64628;50.104;14.614;2024-02-28T02:13:26;39;33;
75946;PMS5003;64628;50.104;14.614;2024-02-28T02:15:52;45;39;
75946;PMS5003;64628;50.104;14.614;2024-02-28T02:18:18;40;36;
75946;PMS5003;64628;50.104;14.614;2024-02-28T02:20:44;39;32;
75946;PMS5003;64628;50.104;14.614;2024-02-28T02:23:09;33;31;
75946;PMS5003;64628;50.104;14.614;2024-02-28T02:25:40;35;32;
75946;PMS5003;64628;50.104;14.614;2024-02-28T02:28:01;42;35;
75946;PMS5003;64628;50.104;14.614;2024-02-28T02:30:26;44;36;
75946;PMS5003;64628;50.104;14.614;2024-02-28T02:32:51;36;31;
75946;PMS5003;64628;50.104;14.614;2024-02-28T02:35:17;40;33;
75946;PMS5003;64628;50.104;14.614;2024-02-28T02:37:43;36;36;
75946;PMS5003;64628;50.104;14.614;2024-02-28T02:40:09;41;36;
75946;PMS5003;64628;50.104;14.614;2024-02-28T02:42:33;39;35;
75946;PMS5003;64628;50.104;14.614;2024-02-28T02:44:59;28;26;
75946;PMS5003;64628;50.104;14.614;2024-02-28T02:47:25;33;30;
75946;PMS5003;64628;50.104;14.614;2024-02-28T02:49:50;34;27;
75946;PMS5003;64628;50.104;14.614;2024-02-28T02:52:15;35;24;
75946;PMS5003;64628;50.104;14.614;2024-02-28T02:54:41;41;24;
75946;PMS5003;64628;50.104;14.614;2024-02-28T02:57:06;35;28;
75946;PMS5003;64628;50.104;14.614;2024-02-28T02:59:31;28;23;
75946;PMS5003;64628;50.104;14.614;2024-02-28T03:01:57;35;30;
75946;PMS5003;64628;50.104;14.614;2024-02-28T03:04:22;35;31;
75946;PMS5003;64628;50.104;14.614;2024-02-28T03:06:48;35;31;
75946;PMS5003;64628;50.104;14.614;2024-02-28T03:09:14;31;27;
75946;PMS5003;64628;50.104;14.614;2024-02-28T03:11:39;32;30;
75946;PMS5003;64628;50.104;14.614;2024-02-28T03:14:04;38;32;
75946;PMS5003;64628;50.104;14.614;2024-02-28T03:16:30;36;31;
75946;PMS5003;64628;50.104;14.614;2024-02-28T03:18:56;34;25;
75946;PMS5003;64628;50.104;14.614;2024-02-28T03:21:22;35;32;
75946;PMS5003;64628;50.104;14.614;2024-02-28T03:23:47;31;24;
75946;PMS5003;64628;50.104;14.614;2024-02-28T03:26:12;43;33;
75946;PMS5003;64628;50.104;14.614;2024-02-28T03:28:38;37;29;
75946;PMS5003;64628;50.104;14.614;2024-02-28T03:31:03;41;27;
75946;PMS5003;64628;50.104;14.614;2024-02-28T03:33:29;35;29;
75946;PMS5003;64628;50.104;14.614;2024-02-28T03:35:54;37;31;
75946;PMS5003;64628;50.104;14.614;2024-02-28T03:38:20;29;26;
75946;PMS5003;64628;50.104;14.614;2024-02-28T03:40:46;30;26;
75946;PMS5003;64628;50.104;14.614;2024-02-28T03:43:11;42;36;
75946;PMS5003;64628;50.104;14.614;2024-02-28T03:45:37;28;27;
75946;PMS5003;64628;50.104;14.614;2024-02-28T03:48:02;32;29;
75946;PMS5003;64628;50.104;14.614;2024-02-28T03:50:27;33;27;
75946;PMS5003;64628;50.104;14.614;2024-02-28T03:52:52;33;29;
75946;PMS5003;64628;50.104;14.614;2024-02-28T03:55:17;36;29;
75946;PMS5003;64628;50.104;14.614;2024-02-28T03:57:47;27;25;
75946;PMS5003;64628;50.104;14.614;2024-02-28T04:00:09;36;31;
75946;PMS5003;64628;50.104;14.614;2024-02-28T04:02:34;37;32;
75946;PMS5003;64628;50.104;14.614;2024-02-28T04:04:59;31;24;
75946;PMS5003;64628;50.104;14.614;2024-02-28T04:07:25;30;27;
75946;PMS5003;64628;50.104;14.614;2024-02-28T04:09:51;26;19;
75946;PMS5003;64628;50.104;14.614;2024-02-28T04:12:17;33;25;
75946;PMS5003;64628;50.104;14.614;2024-02-28T04:14:42;35;26;
75946;PMS5003;64628;50.104;14.614;2024-02-28T04:17:08;33;28;
75946;PMS5003;64628;50.104;14.614;2024-02-28T04:19:33;32;28;
75946;PMS5003;64628;50.104;14.614;2024-02-28T04:21:58;28;26;
75946;PMS5003;64628;50.104;14.614;2024-02-28T04:24:24;37;31;
75946;PMS5003;64628;50.104;14.614;2024-02-28T04:26:50;39;32;
75946;PMS5003;64628;50.104;14.614;2024-02-28T04:29:15;39;35;
75946;PMS5003;64628;50.104;14.614;2024-02-28T04:31:40;33;32;
75946;PMS5003;64628;50.104;14.614;2024-02-28T04:34:06;41;31;
75946;PMS5003;64628;50.104;14.614;2024-02-28T04:36:31;33;28;
75946;PMS5003;64628;50.104;14.614;2024-02-28T04:38:57;38;32;
75946;PMS5003;64628;50.104;14.614;2024-02-28T04:41:23;37;33;
75946;PMS5003;64628;50.104;14.614;2024-02-28T04:43:48;41;35;
75946;PMS5003;64628;50.104;14.614;2024-02-28T04:46:14;41;32;
75946;PMS5003;64628;50.104;14.614;2024-02-28T04:48:39;36;34;
75946;PMS5003;64628;50.104;14.614;2024-02-28T04:51:05;43;37;
75946;PMS5003;64628;50.104;14.614;2024-02-28T04:53:30;40;36;
75946;PMS5003;64628;50.104;14.614;2024-02-28T04:55:55;40;39;
75946;PMS5003;64628;50.104;14.614;2024-02-28T04:58:21;44;39;
75946;PMS5003;64628;50.104;14.614;2024-02-28T05:00:46;44;36;
75946;PMS5003;64628;50.104;14.614;2024-02-28T05:03:12;39;33;
75946;PMS5003;64628;50.104;14.614;2024-02-28T05:05:37;32;25;
75946;PMS5003;64628;50.104;14.614;2024-02-28T05:08:03;39;28;
75946;PMS5003;64628;50.104;14.614;2024-02-28T05:10:28;41;39;
75946;PMS5003;64628;50.104;14.614;2024-02-28T05:12:54;37;29;
75946;PMS5003;64628;50.104;14.614;2024-02-28T05:15:19;51;35;
75946;PMS5003;64628;50.104;14.614;2024-02-28T05:17:45;40;34;
75946;PMS5003;64628;50.104;14.614;2024-02-28T05:20:10;36;32;
75946;PMS5003;64628;50.104;14.614;2024-02-28T05:22:35;33;28;
75946;PMS5003;64628;50.104;14.614;2024-02-28T05:25:00;53;40;
75946;PMS5003;64628;50.104;14.614;2024-02-28T05:27:26;36;30;
75946;PMS5003;64628;50.104;14.614;2024-02-28T05:29:51;36;29;
75946;PMS5003;64628;50.104;14.614;2024-02-28T05:32:16;40;35;
75946;PMS5003;64628;50.104;14.614;2024-02-28T05:34:42;40;31;
75946;PMS5003;64628;50.104;14.614;2024-02-28T05:37:07;43;36;
75946;PMS5003;64628;50.104;14.614;2024-02-28T05:39:33;37;34;
75946;PMS5003;64628;50.104;14.614;2024-02-28T05:41:58;36;31;
75946;PMS5003;64628;50.104;14.614;2024-02-28T05:44:24;36;30;
75946;PMS5003;64628;50.104;14.614;2024-02-28T05:46:49;32;28;
75946;PMS5003;64628;50.104;14.614;2024-02-28T05:49:14;39;32;
75946;PMS5003;64628;50.104;14.614;2024-02-28T05:51:40;37;31;
75946;PMS5003;64628;50.104;14.614;2024-02-28T05:54:05;39;30;
75946;PMS5003;64628;50.104;14.614;2024-02-28T05:56:31;40;33;
75946;PMS5003;64628;50.104;14.614;2024-02-28T05:58:57;47;40;
75946;PMS5003;64628;50.104;14.614;2024-02-28T06:01:22;46;32;
75946;PMS5003;64628;50.104;14.614;2024-02-28T06:03:48;36;29;
75946;PMS5003;64628;50.104;14.614;2024-02-28T06:06:14;39;36;
75946;PMS5003;64628;50.104;14.614;2024-02-28T06:08:39;45;40;
75946;PMS5003;64628;50.104;14.614;2024-02-28T06:11:05;34;32;
75946;PMS5003;64628;50.104;14.614;2024-02-28T06:13:31;41;41;
75946;PMS5003;64628;50.104;14.614;2024-02-28T06:15:56;40;29;
75946;PMS5003;64628;50.104;14.614;2024-02-28T06:18:22;40;37;
75946;PMS5003;64628;50.104;14.614;2024-02-28T06:20:47;44;37;
75946;PMS5003;64628;50.104;14.614;2024-02-28T06:23:13;41;33;
75946;PMS5003;64628;50.104;14.614;2024-02-28T06:25:38;45;40;
75946;PMS5003;64628;50.104;14.614;2024-02-28T06:28:04;44;29;
75946;PMS5003;64628;50.104;14.614;2024-02-28T06:30:30;35;31;
75946;PMS5003;64628;50.104;14.614;2024-02-28T06:32:58;41;36;
75946;PMS5003;64628;50.104;14.614;2024-02-28T06:35:20;36;33;
75946;PMS5003;64628;50.104;14.614;2024-02-28T06:37:46;39;29;
75946;PMS5003;64628;50.104;14.614;2024-02-28T06:40:12;37;29;
75946;PMS5003;64628;50.104;14.614;2024-02-28T06:42:37;41;39;
75946;PMS5003;64628;50.104;14.614;2024-02-28T06:45:03;44;38;
75946;PMS5003;64628;50.104;14.614;2024-02-28T06:47:29;39;34;
75946;PMS5003;64628;50.104;14.614;2024-02-28T06:49:55;41;33;
75946;PMS5003;64628;50.104;14.614;2024-02-28T06:52:20;37;32;
75946;PMS5003;64628;50.104;14.614;2024-02-28T06:54:46;51;42;
75946;PMS5003;64628;50.104;14.614;2024-02-28T06:57:11;42;39;
75946;PMS5003;64628;50.104;14.614;2024-02-28T06:59:37;44;37;
75946;PMS5003;64628;50.104;14.614;2024-02-28T07:02:03;45;39;
75946;PMS5003;64628;50.104;14.614;2024-02-28T07:04:28;42;35;
75946;PMS5003;64628;50.104;14.614;2024-02-28T07:06:53;36;29;
75946;PMS5003;64628;50.104;14.614;2024-02-28T07:09:18;36;32;
75946;PMS5003;64628;50.104;14.614;2024-02-28T07:11:44;33;32;
75946;PMS5003;64628;50.104;14.614;2024-02-28T07:14:10;46;36;
75946;PMS5003;64628;50.104;14.614;2024-02-28T07:16:36;37;32;
75946;PMS5003;64628;50.104;14.614;2024-02-28T07:19:01;36;35;
75946;PMS5003;64628;50.104;14.614;2024-02-28T07:21:26;33;28;
75946;PMS5003;64628;50.104;14.614;2024-02-28T07:23:51;34;29;
75946;PMS5003;64628;50.104;14.614;2024-02-28T07:26:17;34;31;
75946;PMS5003;64628;50.104;14.614;2024-02-28T07:28:42;44;36;
75946;PMS5003;64628;50.104;14.614;2024-02-28T07:33:33;38;32;
75946;PMS5003;64628;50.104;14.614;2024-02-28T07:35:58;40;36;
75946;PMS5003;64628;50.104;14.614;2024-02-28T07:38:24;37;29;
75946;PMS5003;64628;50.104;14.614;2024-02-28T07:40:49;45;40;
75946;PMS5003;64628;50.104;14.614;2024-02-28T07:45:41;32;25;
75946;PMS5003;64628;50.104;14.614;2024-02-28T07:48:06;33;29;
75946;PMS5003;64628;50.104;14.614;2024-02-28T07:50:32;39;32;
75946;PMS5003;64628;50.104;14.614;2024-02-28T07:52:57;42;34;
75946;PMS5003;64628;50.104;14.614;2024-02-28T07:55:23;36;29;
75946;PMS5003;64628;50.104;14.614;2024-02-28T07:57:50;41;32;
75946;PMS5003;64628;50.104;14.614;2024-02-28T08:00:14;33;32;
75946;PMS5003;64628;50.104;14.614;2024-02-28T08:02:39;31;27;
75946;PMS5003;64628;50.104;14.614;2024-02-28T08:05:04;42;36;
75946;PMS5003;64628;50.104;14.614;2024-02-28T08:07:30;34;31;
75946;PMS5003;64628;50.104;14.614;2024-02-28T08:09:55;34;29;
75946;PMS5003;64628;50.104;14.614;2024-02-28T08:12:21;46;36;
75946;PMS5003;64628;50.104;14.614;2024-02-28T08:14:46;35;32;
75946;PMS5003;64628;50.104;14.614;2024-02-28T08:17:12;33;29;
75946;PMS5003;64628;50.104;14.614;2024-02-28T08:19:37;39;33;
75946;PMS5003;64628;50.104;14.614;2024-02-28T08:22:02;33;29;
75946;PMS5003;64628;50.104;14.614;2024-02-28T08:24:28;34;26;
75946;PMS5003;64628;50.104;14.614;2024-02-28T08:26:53;38;35;
75946;PMS5003;64628;50.104;14.614;2024-02-28T08:29:19;33;33;
75946;PMS5003;64628;50.104;14.614;2024-02-28T08:31:44;43;35;
75946;PMS5003;64628;50.104;14.614;2024-02-28T08:34:10;39;33;
75946;PMS5003;64628;50.104;14.614;2024-02-28T08:36:35;30;30;
75946;PMS5003;64628;50.104;14.614;2024-02-28T08:39:00;34;25;
75946;PMS5003;64628;50.104;14.614;2024-02-28T08:41:26;34;33;
75946;PMS5003;64628;50.104;14.614;2024-02-28T08:43:51;43;37;
75946;PMS5003;64628;50.104;14.614;2024-02-28T08:46:16;30;29;
75946;PMS5003;64628;50.104;14.614;2024-02-28T08:48:42;33;29;
75946;PMS5003;64628;50.104;14.614;2024-02-28T08:51:07;31;28;
75946;PMS5003;64628;50.104;14.614;2024-02-28T08:53:33;39;37;
75946;PMS5003;64628;50.104;14.614;2024-02-28T08:55:58;34;30;
75946;PMS5003;64628;50.104;14.614;2024-02-28T08:58:24;34;30;
75946;PMS5003;64628;50.104;14.614;2024-02-28T09:00:49;24;21;
75946;PMS5003;64628;50.104;14.614;2024-02-28T09:03:15;41;30;
75946;PMS5003;64628;50.104;14.614;2024-02-28T09:05:41;40;34;
75946;PMS5003;64628;50.104;14.614;2024-02-28T09:08:06;41;34;
75946;PMS5003;64628;50.104;14.614;2024-02-28T09:10:31;50;42;
75946;PMS5003;64628;50.104;14.614;2024-02-28T09:12:57;42;38;
75946;PMS5003;64628;50.104;14.614;2024-02-28T09:15:22;55;41;
75946;PMS5003;64628;50.104;14.614;2024-02-28T09:17:48;51;44;
75946;PMS5003;64628;50.104;14.614;2024-02-28T09:20:14;56;46;
75946;PMS5003;64628;50.104;14.614;2024-02-28T09:22:39;65;52;
75946;PMS5003;64628;50.104;14.614;2024-02-28T09:25:05;76;62;
75946;PMS5003;64628;50.104;14.614;2024-02-28T09:27:30;59;45;
75946;PMS5003;64628;50.104;14.614;2024-02-28T09:29:56;54;47;
75946;PMS5003;64628;50.104;14.614;2024-02-28T09:32:21;47;42;
75946;PMS5003;64628;50.104;14.614;2024-02-28T09:34:47;66;55;
75946;PMS5003;64628;50.104;14.614;2024-02-28T09:37:13;134;126;
75946;PMS5003;64628;50.104;14.614;2024-02-28T09:39:37;98;87;
75946;PMS5003;64628;50.104;14.614;2024-02-28T09:42:03;87;83;
75946;PMS5003;64628;50.104;14.614;2024-02-28T09:44:28;86;69;
75946;PMS5003;64628;50.104;14.614;2024-02-28T09:46:53;75;64;
75946;PMS5003;64628;50.104;14.614;2024-02-28T09:49:19;75;68;
75946;PMS5003;64628;50.104;14.614;2024-02-28T09:51:44;75;64;
75946;PMS5003;64628;50.104;14.614;2024-02-28T09:54:10;79;67;
75946;PMS5003;64628;50.104;14.614;2024-02-28T09:56:36;90;74;
75946;PMS5003;64628;50.104;14.614;2024-02-28T09:59:01;64;59;
75946;PMS5003;64628;50.104;14.614;2024-02-28T10:01:27;65;52;
75946;PMS5003;64628;50.104;14.614;2024-02-28T10:03:53;70;57;
75946;PMS5003;64628;50.104;14.614;2024-02-28T10:06:19;68;61;
75946;PMS5003;64628;50.104;14.614;2024-02-28T10:08:44;55;51;
75946;PMS5003;64628;50.104;14.614;2024-02-28T10:11:10;49;47;
75946;PMS5003;64628;50.104;14.614;2024-02-28T10:13:35;53;46;
75946;PMS5003;64628;50.104;14.614;2024-02-28T10:16:01;69;62;
75946;PMS5003;64628;50.104;14.614;2024-02-28T10:18:26;60;59;
75946;PMS5003;64628;50.104;14.614;2024-02-28T10:20:51;47;47;
75946;PMS5003;64628;50.104;14.614;2024-02-28T10:23:17;59;51;
75946;PMS5003;64628;50.104;14.614;2024-02-28T10:25:42;58;54;
75946;PMS5003;64628;50.104;14.614;2024-02-28T10:28:07;55;49;
75946;PMS5003;64628;50.104;14.614;2024-02-28T10:30:32;65;56;
75946;PMS5003;64628;50.104;14.614;2024-02-28T10:32:58;52;50;
75946;PMS5003;64628;50.104;14.614;2024-02-28T10:35:23;71;63;
75946;PMS5003;64628;50.104;14.614;2024-02-28T10:37:48;57;47;
75946;PMS5003;64628;50.104;14.614;2024-02-28T10:40:14;52;46;
75946;PMS5003;64628;50.104;14.614;2024-02-28T10:42:39;66;51;
75946;PMS5003;64628;50.104;14.614;2024-02-28T10:45:05;56;47;
75946;PMS5003;64628;50.104;14.614;2024-02-28T10:47:30;51;43;
75946;PMS5003;64628;50.104;14.614;2024-02-28T10:49:56;32;30;
75946;PMS5003;64628;50.104;14.614;2024-02-28T10:52:21;32;28;
75946;PMS5003;64628;50.104;14.614;2024-02-28T10:54:46;33;26;
75946;PMS5003;64628;50.104;14.614;2024-02-28T10:57:12;42;29;
75946;PMS5003;64628;50.104;14.614;2024-02-28T10:59:37;25;23;
75946;PMS5003;64628;50.104;14.614;2024-02-28T11:02:02;26;22;
75946;PMS5003;64628;50.104;14.614;2024-02-28T11:04:27;29;24;
75946;PMS5003;64628;50.104;14.614;2024-02-28T11:06:53;32;28;
75946;PMS5003;64628;50.104;14.614;2024-02-28T11:09:19;32;24;
75946;PMS5003;64628;50.104;14.614;2024-02-28T11:11:43;22;21;
75946;PMS5003;64628;50.104;14.614;2024-02-28T11:14:14;28;23;
75946;PMS5003;64628;50.104;14.614;2024-02-28T11:16:35;28;26;
75946;PMS5003;64628;50.104;14.614;2024-02-28T11:19:01;28;23;
75946;PMS5003;64628;50.104;14.614;2024-02-28T11:21:25;31;30;
75946;PMS5003;64628;50.104;14.614;2024-02-28T11:23:51;31;28;
75946;PMS5003;64628;50.104;14.614;2024-02-28T11:26:16;37;32;
75946;PMS5003;64628;50.104;14.614;2024-02-28T11:28:42;53;50;
75946;PMS5003;64628;50.104;14.614;2024-02-28T11:31:08;36;34;
75946;PMS5003;64628;50.104;14.614;2024-02-28T11:33:33;64;55;
75946;PMS5003;64628;50.104;14.614;2024-02-28T11:35:59;40;36;
75946;PMS5003;64628;50.104;14.614;2024-02-28T11:38:24;70;64;
75946;PMS5003;64628;50.104;14.614;2024-02-28T11:40:50;59;55;
75946;PMS5003;64628;50.104;14.614;2024-02-28T11:43:15;48;44;
75946;PMS5003;64628;50.104;14.614;2024-02-28T11:45:41;68;64;
75946;PMS5003;64628;50.104;14.614;2024-02-28T11:48:06;76;73;
75946;PMS5003;64628;50.104;14.614;2024-02-28T11:50:32;67;58;
75946;PMS5003;64628;50.104;14.614;2024-02-28T11:52:58;70;66;
75946;PMS5003;64628;50.104;14.614;2024-02-28T11:55:24;54;51;
75946;PMS5003;64628;50.104;14.614;2024-02-28T11:57:48;54;50;
75946;PMS5003;64628;50.104;14.614;2024-02-28T12:00:14;48;43;
75946;PMS5003;64628;50.104;14.614;2024-02-28T12:02:40;49;44;
75946;PMS5003;64628;50.104;14.614;2024-02-28T12:05:06;84;81;
75946;PMS5003;64628;50.104;14.614;2024-02-28T12:07:31;36;33;
75946;PMS5003;64628;50.104;14.614;2024-02-28T12:09:57;65;61;
75946;PMS5003;64628;50.104;14.614;2024-02-28T12:12:22;41;40;
75946;PMS5003;64628;50.104;14.614;2024-02-28T12:14:47;46;41;
75946;PMS5003;64628;50.104;14.614;2024-02-28T12:17:13;57;52;
75946;PMS5003;64628;50.104;14.614;2024-02-28T12:19:38;46;41;
75946;PMS5003;64628;50.104;14.614;2024-02-28T12:22:03;51;45;
75946;PMS5003;64628;50.104;14.614;2024-02-28T12:24:28;37;31;
75946;PMS5003;64628;50.104;14.614;2024-02-28T12:26:54;38;36;
75946;PMS5003;64628;50.104;14.614;2024-02-28T12:29:19;45;37;
75946;PMS5003;64628;50.104;14.614;2024-02-28T12:31:45;50;46;
75946;PMS5003;64628;50.104;14.614;2024-02-28T12:34:10;36;31;
75946;PMS5003;64628;50.104;14.614;2024-02-28T12:36:35;45;37;
75946;PMS5003;64628;50.104;14.614;2024-02-28T12:39:01;40;33;
75946;PMS5003;64628;50.104;14.614;2024-02-28T12:41:26;44;37;
75946;PMS5003;64628;50.104;14.614;2024-02-28T12:43:52;42;31;
75946;PMS5003;64628;50.104;14.614;2024-02-28T12:46:18;39;34;
75946;PMS5003;64628;50.104;14.614;2024-02-28T12:48:43;43;32;
75946;PMS5003;64628;50.104;14.614;2024-02-28T12:51:10;46;39;
75946;PMS5003;64628;50.104;14.614;2024-02-28T12:53:34;39;36;
75946;PMS5003;64628;50.104;14.614;2024-02-28T12:56:00;41;33;
75946;PMS5003;64628;50.104;14.614;2024-02-28T12:58:25;51;41;
75946;PMS5003;64628;50.104;14.614;2024-02-28T13:00:51;31;31;
75946;PMS5003;64628;50.104;14.614;2024-02-28T13:03:16;47;36;
75946;PMS5003;64628;50.104;14.614;2024-02-28T13:05:42;53;43;
75946;PMS5003;64628;50.104;14.614;2024-02-28T13:08:08;49;39;
75946;PMS5003;64628;50.104;14.614;2024-02-28T13:10:33;54;48;
75946;PMS5003;64628;50.104;14.614;2024-02-28T13:12:58;55;47;
75946;PMS5003;64628;50.104;14.614;2024-02-28T13:15:24;59;48;
75946;PMS5003;64628;50.104;14.614;2024-02-28T13:17:49;45;34;
75946;PMS5003;64628;50.104;14.614;2024-02-28T13:20:14;52;44;
75946;PMS5003;64628;50.104;14.614;2024-02-28T13:22:40;55;47;
75946;PMS5003;64628;50.104;14.614;2024-02-28T13:25:06;45;34;
75946;PMS5003;64628;50.104;14.614;2024-02-28T13:27:31;43;34;
75946;PMS5003;64628;50.104;14.614;2024-02-28T13:29:57;51;42;
75946;PMS5003;64628;50.104;14.614;2024-02-28T13:32:23;38;36;
75946;PMS5003;64628;50.104;14.614;2024-02-28T13:34:48;38;36;
75946;PMS5003;64628;50.104;14.614;2024-02-28T13:37:14;45;39;
75946;PMS5003;64628;50.104;14.614;2024-02-28T13:39:39;52;42;
75946;PMS5003;64628;50.104;14.614;2024-02-28T13:42:05;41;34;
75946;PMS5003;64628;50.104;14.614;2024-02-28T13:44:30;48;34;
75946;PMS5003;64628;50.104;14.614;2024-02-28T13:46:55;34;28;
75946;PMS5003;64628;50.104;14.614;2024-02-28T13:49:21;43;35;
75946;PMS5003;64628;50.104;14.614;2024-02-28T13:51:47;39;33;
75946;PMS5003;64628;50.104;14.614;2024-02-28T13:54:12;37;32;
75946;PMS5003;64628;50.104;14.614;2024-02-28T13:56:38;46;41;
75946;PMS5003;64628;50.104;14.614;2024-02-28T13:59:04;53;44;
75946;PMS5003;64628;50.104;14.614;2024-02-28T14:01:29;47;37;
75946;PMS5003;64628;50.104;14.614;2024-02-28T14:03:55;47;39;
75946;PMS5003;64628;50.104;14.614;2024-02-28T14:06:20;39;36;
75946;PMS5003;64628;50.104;14.614;2024-02-28T14:08:45;36;32;
75946;PMS5003;64628;50.104;14.614;2024-02-28T14:11:11;42;37;
75946;PMS5003;64628;50.104;14.614;2024-02-28T14:13:36;42;33;
75946;PMS5003;64628;50.104;14.614;2024-02-28T14:16:02;43;35;
75946;PMS5003;64628;50.104;14.614;2024-02-28T14:18:27;38;35;
75946;PMS5003;64628;50.104;14.614;2024-02-28T14:20:52;34;31;
75946;PMS5003;64628;50.104;14.614;2024-02-28T14:23:17;39;32;
75946;PMS5003;64628;50.104;14.614;2024-02-28T14:25:43;42;39;
75946;PMS5003;64628;50.104;14.614;2024-02-28T14:28:09;44;37;
75946;PMS5003;64628;50.104;14.614;2024-02-28T14:30:34;41;41;
75946;PMS5003;64628;50.104;14.614;2024-02-28T14:33:00;43;39;
75946;PMS5003;64628;50.104;14.614;2024-02-28T14:35:26;44;38;
75946;PMS5003;64628;50.104;14.614;2024-02-28T14:37:51;41;37;
75946;PMS5003;64628;50.104;14.614;2024-02-28T14:40:17;52;44;
75946;PMS5003;64628;50.104;14.614;2024-02-28T14:42:43;49;41;
75946;PMS5003;64628;50.104;14.614;2024-02-28T14:45:08;36;32;
75946;PMS5003;64628;50.104;14.614;2024-02-28T14:47:34;41;37;
75946;PMS5003;64628;50.104;14.614;2024-02-28T14:49:59;34;33;
75946;PMS5003;64628;50.104;14.614;2024-02-28T14:52:25;45;37;
75946;PMS5003;64628;50.104;14.614;2024-02-28T14:54:50;42;37;
75946;PMS5003;64628;50.104;14.614;2024-02-28T14:57:15;44;34;
75946;PMS5003;64628;50.104;14.614;2024-02-28T14:59:41;38;38;
75946;PMS5003;64628;50.104;14.614;2024-02-28T15:02:06;51;41;
75946;PMS5003;64628;50.104;14.614;2024-02-28T15:04:31;42;32;
75946;PMS5003;64628;50.104;14.614;2024-02-28T15:06:57;41;34;
75946;PMS5003;64628;50.104;14.614;2024-02-28T15:09:22;53;47;
75946;PMS5003;64628;50.104;14.614;2024-02-28T15:11:48;57;48;
75946;PMS5003;64628;50.104;14.614;2024-02-28T15:14:14;52;41;
75946;PMS5003;64628;50.104;14.614;2024-02-28T15:16:39;43;39;
75946;PMS5003;64628;50.104;14.614;2024-02-28T15:19:05;49;41;
75946;PMS5003;64628;50.104;14.614;2024-02-28T15:21:30;47;43;
75946;PMS5003;64628;50.104;14.614;2024-02-28T15:23:55;46;36;
75946;PMS5003;64628;50.104;14.614;2024-02-28T15:26:21;41;38;
75946;PMS5003;64628;50.104;14.614;2024-02-28T15:28:46;46;41;
75946;PMS5003;64628;50.104;14.614;2024-02-28T15:31:12;39;34;
75946;PMS5003;64628;50.104;14.614;2024-02-28T15:33:37;41;34;
75946;PMS5003;64628;50.104;14.614;2024-02-28T15:36:02;41;37;
75946;PMS5003;64628;50.104;14.614;2024-02-28T15:38:27;57;45;
75946;PMS5003;64628;50.104;14.614;2024-02-28T15:40:53;53;43;
75946;PMS5003;64628;50.104;14.614;2024-02-28T15:43:18;53;46;
75946;PMS5003;64628;50.104;14.614;2024-02-28T15:45:43;53;48;
75946;PMS5003;64628;50.104;14.614;2024-02-28T15:48:08;63;55;
75946;PMS5003;64628;50.104;14.614;2024-02-28T15:50:34;47;45;
75946;PMS5003;64628;50.104;14.614;2024-02-28T15:52:59;76;56;